José Luis García

Olheiro - Atlético Tucumán
22 Nov 2026
Domingo
Processo

Personalidade

Adaptabilidade (14) Ambição (5) Controvérsia (1) Lealdade (15) Pressão (16) Profissionalismo (3) Espírito Esportivo (2) Temperamento (1)

Perfil

Estilo de Treinamento Democrático
Licença Continental C
Determinação 10
Gestão de Pessoas 10
Motivação 4
Disciplina 10
Satisfação no Trabalho
50%
Fadiga
0%
Função Olheiro
Salário 48.4K p/s
Contrato 14.03.2027

Desempenho

Comportamento Normal
Eficácia do Treinamento
24%
Desenvolvimento do Jogador
55%
Prevenção de Lesões
25%
Implementação Tática
30%

Eventos Recentes

Avaliou um jogador agora
Avaliou um jogador agora
Avaliou um jogador agora
Avaliou um jogador agora
Avaliou um jogador 7d atrás
Avaliou um jogador 7d atrás
Avaliou um jogador 7d atrás
Avaliou um jogador 7d atrás

Monitorando agora

194
Jogador Clube Status Habilidade Confiança Observado Última observação Último voto
Iván Villar Legia Ativo 135 / 128 40% 3 21.11.2026 -
Răzvan Sava Universitatea Craiova Ativo 135 / 139 40% 1 21.11.2026 -
Alex Bass Peterborough United Ativo 115 / 117 40% 1 21.11.2026 -
Vladan Kovačević Norwich City Ativo 124 / 117 40% 2 20.11.2026 -
Đorđe Petrović Bournemouth Ativo 157 / 151 40% 1 20.11.2026 -
Justo Giani Umraniyespor Ativo 110 / 110 40% 2 19.11.2026 -
Haissem Hassan Bloemfontein Celtic Ativo 142 / 144 40% 2 19.11.2026 -
Oladapo Afolayan Blackburn Rovers Ativo 118 / 129 40% 1 19.11.2026 -
Marcelo Allende Mamelodi Sundowns Ativo 129 / 126 40% 2 18.11.2026 -
Everton Bala Levski Ativo 122 / 119 40% 1 18.11.2026 -
Ibrahim Sangaré Nottingham Forest Ativo 136 / 133 40% 1 18.11.2026 -
Lucas Bruera Carabobo Ativo 122 / 119 40% 3 16.11.2026 -
Juan Brunetta Tigres Ativo 133 / 149 40% 3 16.11.2026 -
Tom Fellows Southampton Ativo 124 / 117 40% 2 16.11.2026 -
Daniel Iversen Preston Ativo 127 / 116 40% 2 16.11.2026 -
Nathan Trott Cardiff City Ativo 125 / 118 40% 1 16.11.2026 -
Louie Barry Sheffield Wednesday Ativo 124 / 131 40% 1 16.11.2026 -
Abbosbek Fayzullayev Basaksehir Ativo 137 / 135 40% 2 14.11.2026 -
Bradley Zwane SuperSport United Ativo 115 / 123 40% 1 14.11.2026 -
Talles Magno New York City Ativo 127 / 122 40% 1 14.11.2026 -
Jakub Stolarczyk Leicester City Ativo 123 / 122 40% 3 13.11.2026 -
Michael Cooper Sheffield United Ativo 117 / 117 40% 1 13.11.2026 -
Sipho Chaine Orlando Pirates Ativo 123 / 109 40% 1 13.11.2026 -
Bruno Antúnez Boston River Ativo 103 / 117 40% 3 12.11.2026 -
Sebastián Meza Huracán Ativo 132 / 136 40% 2 12.11.2026 -
Justin-Noël Kalumba Mallorca Ativo 113 / 109 40% 4 11.11.2026 -
Leo Castledine Middlesbrough Ativo 134 / 138 40% 1 11.11.2026 -
Stefanos Tzimas Brighton Ativo 129 / 124 40% 1 11.11.2026 -
Oswin Appollis Orlando Pirates Ativo 134 / 137 40% 3 10.11.2026 -
Adu Ares Eibar Ativo 128 / 123 40% 1 10.11.2026 -
Alexandru Stanciu Pandurii Ativo 134 / 147 40% 1 10.11.2026 -
Sergio Arribas Almería Ativo 130 / 131 40% 3 09.11.2026 -
Kwadwo Baah Watford Ativo 123 / 114 40% 1 09.11.2026 -
Williams Mabunda Ajax Cape Town Ativo 116 / 117 40% 1 09.11.2026 -
Diego Romero Universitario Ativo 115 / 117 40% 1 07.11.2026 -
Will Mannion Charlton Athletic Ativo 123 / 112 40% 1 07.11.2026 -
Thomas Openda KV Oostende Ativo 148 / 137 40% 2 05.11.2026 -
Helinho Toluca Ativo 133 / 139 40% 2 05.11.2026 -
Finn Azaz Southampton Ativo 131 / 129 40% 1 05.11.2026 -
Alejo Cruz Juventud Ativo 119 / 117 40% 3 04.11.2026 -
Kostantis Tzolakis Hull City Ativo 140 / 144 40% 2 04.11.2026 -
Ernest Appiah Hasaacas Ativo 123 / 130 40% 1 04.11.2026 -
Pablo Solari Spartak Moscow Ativo 140 / 116 40% 1 04.11.2026 -
Alfie Whiteman Newport County Ativo 107 / 111 40% 1 04.11.2026 -
Balázs Tóth Blackburn Rovers Ativo 123 / 122 40% 1 04.11.2026 -
Patrick Schulte Columbus Crew Ativo 120 / 114 40% 4 03.11.2026 -
Manuel Roffo Hajduk Split Ativo 127 / 142 40% 2 03.11.2026 -
Teboho Mokoena Mamelodi Sundowns Ativo 140 / 123 40% 1 02.11.2026 -
Peter Valjent FK Senica Ativo 119 / 124 40% 1 02.11.2026 -
Cucho Hernández Betis Ativo 141 / 147 40% 1 02.11.2026 -
George Wickens Lincoln City Ativo 103 / 131 40% 1 01.11.2026 -
Tamas Kleinheisler Haladas Ativo 118 / 122 40% 1 01.11.2026 -
Vivaldo Semedo Watford Ativo 106 / 134 40% 1 01.11.2026 -
Mateus Mané Burnley Ativo 142 / 121 40% 1 01.11.2026 -
CJ dos Santos San Diego Football Club Ativo 108 / 106 40% 1 30.10.2026 -
Radek Vítek Middlesbrough Ativo 125 / 146 40% 1 30.10.2026 -
James Trafford Leeds United Ativo 130 / 131 40% 1 30.10.2026 -
Juan Pablo Gallego Fehervar Ativo 115 / 101 40% 2 28.10.2026 -
Emiliano González Almagro Ativo 109 / 107 40% 1 27.10.2026 -
Arijanet Murić Sassuolo Ativo 134 / 123 40% 1 27.10.2026 -
Esteban Glellel Quilmes Ativo 110 / 115 40% 1 26.10.2026 -
Anthony Patterson Wrexham Ativo 130 / 127 40% 1 26.10.2026 -
Eduardo Darias Penarol Ativo 127 / 130 40% 2 25.10.2026 -
Brian Figueroa Morelia Ativo 104 / 114 40% 2 25.10.2026 -
Juan Bisanz Huracán Ativo 130 / 116 40% 1 25.10.2026 -
Manu Morlanes Mallorca Ativo 124 / 121 40% 1 24.10.2026 -
Carlos Forbs Club Brugge Ativo 121 / 127 40% 1 24.10.2026 -
Tomás Ahumada Audax Italiano Ativo 106 / 115 40% 4 23.10.2026 -
Ilyas Ansah Hull City Ativo 125 / 146 40% 2 23.10.2026 -
Viktor Johansson Stoke City Ativo 124 / 119 40% 1 23.10.2026 -
Enzo Vázquez Central Norte Ativo 103 / 98 40% 1 23.10.2026 -
Jocelin Ta Bi Sunderland Ativo 106 / 127 40% 1 23.10.2026 -
Pavel Bucha FC Cincinnati Ativo 129 / 132 40% 1 21.10.2026 -
Nahuel Furtado Wanderers Ativo 126 / 121 40% 1 20.10.2026 -
Mohamed-Ali Cho Hull City Ativo 131 / 136 40% 1 20.10.2026 -
Emiliano Álvarez Progreso Ativo 114 / 126 40% 2 19.10.2026 -
Ihojan Pérez Cerro Largo Ativo 87 / 110 40% 1 19.10.2026 -
Darren Yapi Colorado Rapids Ativo 109 / 120 40% 1 19.10.2026 -
Róyner Benítez Aguilas Doradas Ativo 105 / 118 40% 2 17.10.2026 -
Dylan Cabral Arsenal Ativo 97 / 106 40% 1 17.10.2026 -
Alex Woiski Deportivo Tachira Ativo 98 / 88 40% 1 17.10.2026 -
Ander Guevara Racing Genk Ativo 136 / 148 40% 1 16.10.2026 -
Sorba Thomas Stoke City Ativo 122 / 142 40% 1 14.10.2026 -
Matías Vargas Gimnasia y Esgrima Ativo 135 / 135 40% 1 14.10.2026 -
Rick Talleres Ativo 123 / 121 40% 1 14.10.2026 -
Nuno Santos Mamelodi Sundowns Ativo 132 / 109 40% 1 13.10.2026 -
Iván Manzur Racing Ativo 95 / 100 40% 2 12.10.2026 -
Alejandro Villarreal Caracas Ativo 97 / 107 40% 1 12.10.2026 -
Leonel Galván Independiente Ativo 95 / 116 40% 1 12.10.2026 -
Rodrigo Morínigo Debrecen Ativo 115 / 106 40% 1 11.10.2026 -
Dmytro Riznyk Racing Genk Ativo 133 / 133 40% 1 11.10.2026 -
Zach Hemming Chesterfield Ativo 93 / 91 40% 1 11.10.2026 -
Nicolás Rossi Juventud Ativo 104 / 115 40% 1 10.10.2026 -
Juan Pablo Cisternas Antofagasta Ativo 95 / 98 40% 1 10.10.2026 -
Nicolás Sumavil Platense Ativo 117 / 115 40% 1 09.10.2026 -
Francisco Casanova Cerrito Ativo 109 / 103 40% 1 09.10.2026 -
Fabrizio Correa Juventud Ativo 121 / 123 40% 1 09.10.2026 -
Fernando Tapia Club America Ativo 131 / 127 40% 3 08.10.2026 -
Carlos Álvarez Club America Ativo 138 / 148 40% 2 08.10.2026 -
Dayne St. Clair Inter Miami CF Ativo 126 / 122 40% 1 08.10.2026 -
Roman Celentano FC Cincinnati Ativo 126 / 120 40% 1 08.10.2026 -
Tyrhys Dolan Espanyol Ativo 125 / 121 40% 1 08.10.2026 -
Fernando Valenzuela Queretaro Ativo 133 / 119 40% 1 04.10.2026 -
Kevin Velasco Puebla Ativo 119 / 124 40% 1 04.10.2026 -
Milton Valenzuela Atlas Ativo 114 / 116 40% 1 03.10.2026 -
Lucciano Reinoso Caracas Ativo 82 / 94 40% 1 02.10.2026 -
Archie Goodwin Charlotte Football Club Ativo 101 / 103 40% 1 02.10.2026 -
Federico Varese Racing Ativo 108 / 111 40% 4 01.10.2026 -
Fran Villalba Santos Laguna Ativo 118 / 109 40% 1 30.09.2026 -
Franco Romero Toluca Ativo 129 / 116 40% 1 30.09.2026 -
Richard Ledezma Guadalajara Ativo 140 / 131 40% 1 30.09.2026 -
Felipe Zenobio Tigre Ativo 123 / 123 40% 1 29.09.2026 -
Carl Rushworth Coventry City Ativo 134 / 126 40% 1 29.09.2026 -
Luis Malagón Club America Ativo 135 / 138 40% 3 26.09.2026 -
Agustín Buffa Wanderers Ativo 96 / 104 40% 2 26.09.2026 -
Cristopher Varela Deportivo La Guaira Ativo 107 / 119 40% 4 24.09.2026 -
Lucas Bergström Union Berlin Ativo 117 / 137 40% 1 24.09.2026 -
Carlos Rodríguez Cruz Azul Ativo 133 / 142 40% 2 23.09.2026 -
Andrés Gudiño Cruz Azul Ativo 117 / 116 40% 3 23.09.2026 -
Juan Pablo Domínguez Leon Ativo 127 / 133 40% 2 23.09.2026 -
Luís Esteves Atlas Ativo 129 / 133 40% 1 23.09.2026 -
Nahuel Suárez La Luz Ativo 106 / 116 40% 1 23.09.2026 -
Jesús Ricardo Angulo Toluca Ativo 140 / 130 40% 2 21.09.2026 -
Brian Gutiérrez Guadalajara Ativo 130 / 136 40% 1 21.09.2026 -
Pablo Cardona Cortulua Ativo 119 / 114 40% 1 21.09.2026 -
Babis Kostoulas Brighton Ativo 115 / 138 40% 1 20.09.2026 -
Miguel Marulanda Envigado Ativo 90 / 100 40% 1 20.09.2026 -
Matt Freese New York City Ativo 137 / 118 40% 3 19.09.2026 -
Luciano Jachfe Nueva Chicago Ativo 109 / 115 40% 2 19.09.2026 -
Jefferson Duque Cortulua Ativo 118 / 132 40% 1 18.09.2026 -
Ismael Díaz Leon Ativo 124 / 128 40% 1 18.09.2026 -
Camilo Martinez Cortulua Ativo 119 / 119 40% 1 18.09.2026 -
Mauro Silveira Junior Ativo 111 / 120 40% 4 17.09.2026 -
Iker Benito Queretaro Ativo 128 / 112 40% 1 17.09.2026 -
Alejandro Zendejas Club America Ativo 143 / 142 40% 1 17.09.2026 -
Diego Lainez Tigres Ativo 125 / 130 40% 1 17.09.2026 -
Víctor Cabezas Union Magdalena Ativo 111 / 125 40% 1 17.09.2026 -
Aldo Pérez Guarani Ativo 102 / 119 40% 2 16.09.2026 -
Ángel Fortuño Espanyol Ativo 110 / 117 40% 1 16.09.2026 -
Williams Barlasina Fortaleza CEIF Ativo 118 / 121 40% 2 13.09.2026 -
Felipe Parra Envigado Ativo 113 / 120 40% 2 13.09.2026 -
Edison Gruezo Queretaro Ativo 97 / 110 40% 1 13.09.2026 -
Gabriel Monjes Hamrun Spartans Ativo 77 / 88 40% 1 13.09.2026 -
Luciano Inverso Betis Ativo 113 / 109 40% 1 13.09.2026 -
Diego Enríquez Sporting Cristal Ativo 120 / 118 40% 2 10.09.2026 -
Renato Solís Sporting Cristal Ativo 129 / 122 40% 1 10.09.2026 -
Federico Losas Chacarita Juniors Ativo 105 / 108 40% 2 09.09.2026 -
Omar Carabalí O'Higgins Ativo 104 / 102 40% 1 09.09.2026 -
Agustín Palavecino Cruz Azul Ativo 136 / 126 40% 3 07.09.2026 -
Esteban Obregón Montevideo City Torque Ativo 108 / 124 40% 1 06.09.2026 -
Emerson Batalla Atletico Bucaramanga Ativo 118 / 114 40% 1 06.09.2026 -
Miguel Núñez Chiapas Ativo 100 / 91 40% 1 05.09.2026 -
Juan Moreno La Luz Ativo 114 / 109 40% 2 04.09.2026 -
Xavier Biscayzacú Defensor Sporting Ativo 131 / 138 40% 2 03.09.2026 -
Victor Palacios La Equidad Ativo 120 / 139 40% 2 03.09.2026 -
Nicolás Campisi Sportivo Luqueno Ativo 120 / 113 40% 2 03.09.2026 -
Ramiro Peralta Juventud Ativo 122 / 130 40% 1 03.09.2026 -
Luka Andrade Montevideo City Torque Ativo 101 / 107 40% 1 01.09.2026 -
Valentín Luciani Fenix Ativo 101 / 98 40% 1 01.09.2026 -
Ronaldo Pájaro Deportivo Cali Ativo 123 / 108 40% 1 29.08.2026 -
Leandro Suhr Boston River Ativo 121 / 114 40% 1 29.08.2026 -
José Alberti Wanderers Ativo 121 / 112 40% 1 29.08.2026 -
Matías Medina Sportivo Luqueno Ativo 97 / 107 40% 2 28.08.2026 -
Bryan González Guadalajara Ativo 125 / 129 40% 2 28.08.2026 -
Tobías Reinhart Universidad de Chile Ativo 125 / 117 40% 1 28.08.2026 -
Carlos Moreno Pachuca Ativo 133 / 136 40% 2 27.08.2026 -
José Hernández Queretaro Ativo 108 / 107 40% 3 27.08.2026 -
Chris Brady Chicago Fire Ativo 126 / 119 40% 1 27.08.2026 -
Pablo Lara Pumas UNAM Ativo 110 / 115 40% 1 22.08.2026 -
Ángel González Libertad Ativo 102 / 97 40% 1 22.08.2026 -
Fabian Cuadrado Universitario Popayan Ativo 103 / 106 40% 1 20.08.2026 -
Ramiro Sordo Santos Laguna Ativo 121 / 124 40% 1 20.08.2026 -
Sergi Cardona KAA Gent Ativo 155 / 133 40% 1 20.08.2026 -
Santiago López Pumas UNAM Ativo 94 / 97 40% 1 19.08.2026 -
Ignacio Schor O'Higgins Ativo 111 / 126 40% 1 18.08.2026 -
Felipe Valencia Cortulua Ativo 130 / 117 40% 2 14.08.2026 -
Fernando Beltrán Leon Ativo 129 / 114 40% 1 14.08.2026 -
Uriel Antuna Pumas UNAM Ativo 131 / 144 40% 1 14.08.2026 -
Juan Camilo Loaiza Llaneros Ativo 92 / 108 40% 1 12.08.2026 -
Beycker Velásquez Zamora Ativo 107 / 111 40% 1 12.08.2026 -
Jorge Cabezudo Melgar Ativo 102 / 117 40% 1 11.08.2026 -
Diego Rossi Monterrey Ativo 128 / 122 40% 1 09.08.2026 -
Jesús Angulo Tigres Ativo 137 / 133 40% 1 09.08.2026 -
Juan Hurtado La Equidad Ativo 129 / 122 40% 1 09.08.2026 -
Jonás Luna Wanderers Ativo 120 / 123 40% 1 08.08.2026 -
Alexei Dominguez Pachuca Ativo 101 / 119 40% 1 08.08.2026 -
Luis Rodriguez Cortulua Ativo 124 / 118 40% 1 08.08.2026 -
Gonzalo Falcón Cienciano Ativo 103 / 112 40% 1 05.08.2026 -
Robin Roefs Sunderland Ativo 131 / 157 40% 1 04.08.2026 -
Ignacio Suárez Nacional Ativo 102 / 97 40% 1 02.08.2026 -
Weibmar Asprilla Independiente Medellin Ativo 115 / 102 40% 1 02.08.2026 -
Franco Petroli Lanús Ativo 120 / 121 40% 1 02.08.2026 -
Luis López Eibar Ativo 109 / 105 40% 1 01.08.2026 -
Julen Agirrezabala Racing Santander Ativo 141 / 148 40% 1 01.08.2026 -